createdAt,value
2023-04-27T00:00:36.494Z,9.4937
2023-04-27T00:01:44.558Z,9.3869
2023-04-27T00:02:52.801Z,9.2593
2023-04-27T00:04:00.853Z,9.2061
2023-04-27T00:05:09.095Z,9.2135
2023-04-27T00:06:16.978Z,9.4207
2023-04-27T00:07:24.910Z,9.4666
2023-04-27T00:08:32.844Z,9.3329
2023-04-27T00:09:40.891Z,9.3280
2023-04-27T00:10:48.964Z,9.4432
2023-04-27T00:11:57.180Z,9.4243
2023-04-27T00:13:05.179Z,9.3949
2023-04-27T00:14:13.277Z,9.4130
2023-04-27T00:15:21.341Z,9.4228
2023-04-27T00:16:29.434Z,9.3711
2023-04-27T00:17:37.506Z,9.4298
2023-04-27T00:18:45.499Z,9.4701
2023-04-27T00:19:53.561Z,9.4416
2023-04-27T00:21:01.665Z,9.4203
2023-04-27T00:22:09.735Z,9.4474
2023-04-27T00:23:17.634Z,9.4418
2023-04-27T00:24:25.693Z,9.5387
2023-04-27T00:25:33.739Z,9.5820
2023-04-27T00:26:41.999Z,9.6165
2023-04-27T00:27:50.051Z,9.5725
2023-04-27T00:28:58.098Z,9.5359
2023-04-27T00:30:06.158Z,9.5483
2023-04-27T00:31:14.158Z,9.5980
2023-04-27T00:32:22.283Z,9.7178
2023-04-27T00:33:30.352Z,9.7194
2023-04-27T00:34:38.342Z,9.6112
2023-04-27T00:35:46.423Z,9.5559
2023-04-27T00:36:54.477Z,9.3924
2023-04-27T00:38:02.409Z,9.3316
2023-04-27T00:39:10.523Z,9.3406
2023-04-27T00:40:18.554Z,9.4252
2023-04-27T00:41:27.062Z,9.4987
2023-04-27T00:42:34.805Z,9.5778
2023-04-27T00:43:43.078Z,9.6972
2023-04-27T00:44:50.966Z,9.7338
2023-04-27T00:45:58.996Z,9.7310
2023-04-27T00:47:07.260Z,9.7863
2023-04-27T00:48:15.103Z,9.6556
2023-04-27T00:49:23.211Z,9.6783
2023-04-27T00:50:31.301Z,9.6427
2023-04-27T00:51:39.295Z,9.7014
2023-04-27T00:52:47.265Z,9.6803
2023-04-27T00:53:55.326Z,9.5031
2023-04-27T00:55:03.391Z,9.4436
2023-04-27T00:56:11.856Z,9.5835
2023-04-27T00:57:19.606Z,9.7279
2023-04-27T00:58:27.726Z,9.8267
2023-04-27T00:59:35.767Z,9.8613
2023-04-27T01:00:43.824Z,9.8737
2023-04-27T01:01:51.918Z,9.8521
2023-04-27T01:03:00.056Z,9.8441
2023-04-27T01:04:08.267Z,9.7737
2023-04-27T01:05:16.068Z,9.5641
2023-04-27T01:06:24.112Z,9.5729
2023-04-27T01:07:32.109Z,9.5343
2023-04-27T01:08:40.154Z,9.5135
2023-04-27T01:09:48.217Z,9.5132
2023-04-27T01:10:56.346Z,9.6000
2023-04-27T01:12:04.621Z,9.6379
2023-04-27T01:13:12.658Z,9.6152
2023-04-27T01:14:20.572Z,9.6061
2023-04-27T01:15:28.695Z,9.5376
2023-04-27T01:16:36.802Z,9.5462
2023-04-27T01:17:44.792Z,9.5683
2023-04-27T01:18:53.028Z,9.5679
2023-04-27T01:20:00.905Z,9.6471
2023-04-27T01:21:08.966Z,9.6703
2023-04-27T01:22:16.901Z,9.7407
2023-04-27T01:23:25.002Z,9.7768
2023-04-27T01:24:33.072Z,9.7541
2023-04-27T01:25:41.232Z,9.7247
2023-04-27T01:26:49.361Z,9.6745
2023-04-27T01:27:57.493Z,9.6789
2023-04-27T01:29:05.422Z,9.7121
2023-04-27T01:30:13.492Z,9.7770
2023-04-27T01:31:21.593Z,9.7657
2023-04-27T01:32:29.631Z,9.7878
2023-04-27T01:33:37.670Z,9.6881
2023-04-27T01:34:45.748Z,9.6333
2023-04-27T01:35:53.954Z,9.6328
2023-04-27T01:37:01.743Z,9.6362
2023-04-27T01:38:09.817Z,9.6314
2023-04-27T01:39:17.878Z,9.5237
2023-04-27T01:40:26.125Z,9.4470
2023-04-27T01:41:34.175Z,9.4973
2023-04-27T01:42:42.451Z,9.5223
2023-04-27T01:43:50.370Z,9.5410
2023-04-27T01:44:58.321Z,9.5008
2023-04-27T01:46:06.399Z,9.4422
2023-04-27T01:47:14.473Z,9.4996
2023-04-27T01:48:22.465Z,9.5553
2023-04-27T01:49:30.604Z,9.5326
2023-04-27T01:50:38.661Z,9.5225
2023-04-27T01:51:46.548Z,9.5565
2023-04-27T01:52:54.661Z,9.5012
2023-04-27T01:54:02.662Z,9.5101
2023-04-27T01:55:11.030Z,9.5288
2023-04-27T01:56:18.934Z,9.6007
2023-04-27T01:57:27.076Z,9.5906
2023-04-27T01:58:35.133Z,9.3833
2023-04-27T01:59:43.235Z,9.2486
2023-04-27T02:00:51.204Z,9.3354
2023-04-27T02:01:59.289Z,9.4111
2023-04-27T02:03:07.483Z,9.4413
2023-04-27T02:04:15.719Z,9.4748
2023-04-27T02:05:23.322Z,9.5456
2023-04-27T02:06:31.407Z,9.6314
2023-04-27T02:07:39.462Z,9.6408
2023-04-27T02:08:47.773Z,9.5982
2023-04-27T02:09:55.797Z,9.4462
2023-04-27T02:11:03.762Z,9.3264
2023-04-27T02:12:11.946Z,9.4262
2023-04-27T02:13:19.888Z,9.4096
2023-04-27T02:14:27.971Z,9.4256
2023-04-27T02:15:36.152Z,9.4756
2023-04-27T02:16:44.113Z,9.4548
2023-04-27T02:17:52.192Z,9.3064
2023-04-27T02:19:00.215Z,9.1082
2023-04-27T02:20:08.153Z,9.0337
2023-04-27T02:21:16.245Z,9.1746
2023-04-27T02:22:24.271Z,9.2788
2023-04-27T02:23:32.449Z,9.1309
2023-04-27T02:24:40.640Z,8.9614
2023-04-27T02:25:48.580Z,8.9049
2023-04-27T02:26:56.849Z,8.9682
2023-04-27T02:28:04.692Z,9.0524
2023-04-27T02:29:13.060Z,8.9589
2023-04-27T02:30:20.889Z,8.9675
2023-04-27T02:31:29.056Z,8.8849
2023-04-27T02:32:36.997Z,8.9259
2023-04-27T02:33:44.997Z,8.9835
2023-04-27T02:34:52.959Z,9.0882
2023-04-27T02:36:01.008Z,9.1094
2023-04-27T02:37:09.033Z,9.1529
2023-04-27T02:38:17.299Z,9.1273
2023-04-27T02:39:25.309Z,9.1248
2023-04-27T02:40:33.504Z,9.0791
2023-04-27T02:41:41.457Z,9.0995
2023-04-27T02:42:49.522Z,9.0970
2023-04-27T02:43:57.606Z,8.9248
2023-04-27T02:45:05.675Z,8.9186
2023-04-27T02:46:13.740Z,8.9085
2023-04-27T02:47:21.762Z,8.9160
2023-04-27T02:48:29.926Z,8.8347
2023-04-27T02:49:38.176Z,8.7668
2023-04-27T02:50:45.793Z,8.6011
2023-04-27T02:51:53.863Z,8.6526
2023-04-27T02:53:02.082Z,8.8126
2023-04-27T02:54:10.143Z,8.8639
2023-04-27T02:55:18.257Z,8.7653
2023-04-27T02:56:26.425Z,8.8412
2023-04-27T02:57:34.305Z,8.8494
2023-04-27T02:58:42.393Z,8.7172
2023-04-27T02:59:50.459Z,8.5612
2023-04-27T03:00:58.561Z,8.5822
2023-04-27T03:02:06.587Z,8.7621
2023-04-27T03:03:14.905Z,8.8433
2023-04-27T03:04:22.624Z,8.8752
2023-04-27T03:05:30.630Z,8.8486
2023-04-27T03:06:38.707Z,8.8202
2023-04-27T03:07:46.934Z,8.8691
2023-04-27T03:08:54.955Z,8.9520
2023-04-27T03:10:02.969Z,8.9328
2023-04-27T03:11:11.113Z,8.8874
2023-04-27T03:12:19.300Z,8.7683
2023-04-27T03:13:27.198Z,8.5965
2023-04-27T03:14:35.252Z,8.6438
2023-04-27T03:15:43.549Z,8.7416
2023-04-27T03:16:51.511Z,8.8033
2023-04-27T03:17:59.521Z,8.8492
2023-04-27T03:19:07.385Z,8.8328
2023-04-27T03:20:15.440Z,8.8956
2023-04-27T03:21:23.476Z,8.8248
2023-04-27T03:22:31.748Z,8.8290
2023-04-27T03:23:39.775Z,8.8374
2023-04-27T03:24:47.841Z,8.8136
2023-04-27T03:25:55.916Z,8.7685
2023-04-27T03:27:03.904Z,8.8092
2023-04-27T03:28:12.126Z,8.6125
2023-04-27T03:29:20.095Z,8.4277
2023-04-27T03:30:28.134Z,8.3365
2023-04-27T03:31:36.236Z,8.3730
2023-04-27T03:32:47.039Z,8.4079
2023-04-27T03:33:57.063Z,8.5297
2023-04-27T03:35:05.134Z,8.4725
2023-04-27T03:36:13.165Z,8.4023
2023-04-27T03:37:21.345Z,8.4393
2023-04-27T03:38:29.421Z,8.3953
2023-04-27T03:39:37.484Z,8.4601
2023-04-27T03:40:45.582Z,8.4885
2023-04-27T03:41:53.668Z,8.5994
2023-04-27T03:43:01.685Z,8.5877
2023-04-27T03:44:09.852Z,8.5244
2023-04-27T03:45:17.782Z,8.4452
2023-04-27T03:46:25.979Z,8.6171
2023-04-27T03:47:33.977Z,8.7510
2023-04-27T03:48:41.829Z,8.7971
2023-04-27T03:49:49.914Z,8.7825
2023-04-27T03:50:58.056Z,8.7333
2023-04-27T03:52:06.208Z,8.7098
2023-04-27T03:53:14.225Z,8.6772
2023-04-27T03:54:22.245Z,8.6533
2023-04-27T03:55:30.353Z,8.5984
2023-04-27T03:56:38.481Z,8.6467
2023-04-27T03:57:46.586Z,8.7083
2023-04-27T03:58:54.591Z,8.6938
2023-04-27T04:00:02.687Z,8.5870
2023-04-27T04:01:11.116Z,8.6196
2023-04-27T04:02:18.709Z,8.7226
2023-04-27T04:03:26.958Z,8.7598
2023-04-27T04:04:34.953Z,8.7985
2023-04-27T04:05:42.911Z,8.7487
2023-04-27T04:06:51.025Z,8.7346
2023-04-27T04:07:59.039Z,8.7474
2023-04-27T04:09:07.285Z,8.7243
2023-04-27T04:10:15.161Z,8.6568
2023-04-27T04:11:23.264Z,8.6575
2023-04-27T04:12:31.314Z,8.7275
2023-04-27T04:13:39.422Z,8.7481
2023-04-27T04:14:47.535Z,8.7937
2023-04-27T04:15:55.658Z,8.8851
2023-04-27T04:17:03.449Z,8.9345
2023-04-27T04:18:11.555Z,8.9238
2023-04-27T04:19:20.760Z,8.9019
2023-04-27T04:20:32.677Z,8.7787
2023-04-27T04:21:40.683Z,8.7174
2023-04-27T04:22:48.777Z,8.6329
2023-04-27T04:23:56.845Z,8.5887
2023-04-27T04:25:04.962Z,8.6858
2023-04-27T04:26:12.974Z,8.7298
2023-04-27T04:27:20.988Z,8.7733
2023-04-27T04:28:29.015Z,8.7882
2023-04-27T04:29:37.082Z,8.8097
2023-04-27T04:30:45.019Z,8.8197
2023-04-27T04:31:53.176Z,8.7951
2023-04-27T04:33:01.177Z,8.8200
2023-04-27T04:34:09.342Z,8.8069
2023-04-27T04:35:17.392Z,8.8160
2023-04-27T04:36:25.428Z,8.8170
2023-04-27T04:37:33.537Z,8.7310
2023-04-27T04:38:41.583Z,8.7481
2023-04-27T04:39:49.655Z,8.8393
2023-04-27T04:40:57.833Z,8.8837
2023-04-27T04:42:05.810Z,8.8525
2023-04-27T04:43:13.801Z,8.8366
2023-04-27T04:44:21.865Z,8.8696
2023-04-27T04:45:29.812Z,8.9061
2023-04-27T04:46:37.947Z,8.8767
2023-04-27T04:47:45.938Z,8.8628
2023-04-27T04:48:54.847Z,8.9518
2023-04-27T04:50:02.418Z,8.9064
2023-04-27T04:51:10.216Z,9.0194
2023-04-27T04:52:18.438Z,8.8670
2023-04-27T04:53:26.280Z,8.6919
2023-04-27T04:54:34.414Z,8.6173
2023-04-27T04:55:42.475Z,8.4931
2023-04-27T04:56:50.632Z,8.4117
2023-04-27T04:57:58.622Z,8.5704
2023-04-27T04:59:06.571Z,8.7148
2023-04-27T05:00:14.603Z,8.7363
2023-04-27T05:01:22.673Z,8.7836
2023-04-27T05:02:30.756Z,8.9438
2023-04-27T05:03:38.960Z,9.0386
2023-04-27T05:04:47.143Z,8.9841
2023-04-27T05:05:55.113Z,9.0007
2023-04-27T05:07:03.090Z,8.8876
2023-04-27T05:08:11.062Z,8.7462
2023-04-27T05:09:19.178Z,8.7611
2023-04-27T05:10:27.194Z,8.8647
2023-04-27T05:11:35.353Z,8.9812
2023-04-27T05:12:43.356Z,9.0815
2023-04-27T05:13:51.477Z,9.0907
2023-04-27T05:14:59.338Z,9.0916
2023-04-27T05:16:07.468Z,9.0562
2023-04-27T05:17:15.493Z,9.1067
2023-04-27T05:18:23.633Z,9.1054
2023-04-27T05:19:31.776Z,9.1651
2023-04-27T05:20:39.735Z,9.2494
2023-04-27T05:21:47.987Z,9.3125
2023-04-27T05:22:55.889Z,9.3116
2023-04-27T05:24:03.927Z,9.1647
2023-04-27T05:25:12.097Z,9.1731
2023-04-27T05:26:20.045Z,9.1645
2023-04-27T05:27:28.096Z,9.1458
2023-04-27T05:28:36.177Z,9.2128
2023-04-27T05:29:44.103Z,9.2786
2023-04-27T05:30:52.201Z,9.4443
2023-04-27T05:32:00.357Z,9.5736
2023-04-27T05:33:08.449Z,9.5265
2023-04-27T05:34:16.597Z,9.4844
2023-04-27T05:35:24.569Z,9.4561
2023-04-27T05:36:32.609Z,9.4165
2023-04-27T05:37:40.572Z,9.5712
2023-04-27T05:38:48.693Z,9.6719
2023-04-27T05:39:56.813Z,9.7770
2023-04-27T05:41:04.826Z,9.8805
2023-04-27T05:42:12.867Z,9.8685
2023-04-27T05:43:20.963Z,9.7029
2023-04-27T05:44:28.911Z,9.6333
2023-04-27T05:45:37.005Z,9.5961
2023-04-27T05:46:45.013Z,9.5412
2023-04-27T05:47:53.232Z,9.6160
2023-04-27T05:49:01.361Z,9.6501
2023-04-27T05:50:09.353Z,9.6909
2023-04-27T05:51:17.394Z,9.7228
2023-04-27T05:52:25.375Z,9.8470
2023-04-27T05:53:33.496Z,9.8246
2023-04-27T05:54:41.487Z,9.8124
2023-04-27T05:55:49.682Z,9.7211
2023-04-27T05:56:57.704Z,9.5996
2023-04-27T05:58:08.963Z,9.6125
2023-04-27T05:59:18.470Z,9.6546
2023-04-27T06:00:26.554Z,9.6497
2023-04-27T06:01:34.588Z,9.7916
2023-04-27T06:02:42.956Z,9.7602
2023-04-27T06:03:50.924Z,9.8258
2023-04-27T06:04:59.086Z,9.9221
2023-04-27T06:06:06.904Z,9.9597
2023-04-27T06:07:16.153Z,10.1022
2023-04-27T06:08:23.112Z,10.1903
2023-04-27T06:09:31.069Z,10.4068
2023-04-27T06:10:39.108Z,10.5771
2023-04-27T06:11:47.233Z,10.6484
2023-04-27T06:12:55.347Z,10.5130
2023-04-27T06:14:03.255Z,10.3888
2023-04-27T06:15:11.287Z,10.2603
2023-04-27T06:16:19.449Z,10.2105
2023-04-27T06:17:27.508Z,10.1558
2023-04-27T06:18:35.559Z,10.2128
2023-04-27T06:19:43.646Z,10.1643
2023-04-27T06:20:51.790Z,10.3122
2023-04-27T06:21:59.709Z,10.5740
2023-04-27T06:23:07.789Z,10.7243
2023-04-27T06:24:15.848Z,10.8472
2023-04-27T06:25:27.074Z,10.8271
2023-04-27T06:26:36.862Z,10.9425
2023-04-27T06:27:44.788Z,10.8748
2023-04-27T06:28:52.847Z,10.6684
2023-04-27T06:30:01.043Z,10.5357
2023-04-27T06:31:09.109Z,10.7163
2023-04-27T06:32:17.081Z,10.9914
2023-04-27T06:33:25.109Z,10.8634
2023-04-27T06:34:33.174Z,10.7926
2023-04-27T06:35:41.250Z,10.9389
2023-04-27T06:36:49.338Z,10.9542
2023-04-27T06:37:57.471Z,10.8048
2023-04-27T06:39:05.409Z,10.7936
2023-04-27T06:40:13.485Z,10.8245
2023-04-27T06:41:21.659Z,10.9500
2023-04-27T06:42:29.588Z,11.0528
2023-04-27T06:43:37.569Z,11.1310
2023-04-27T06:44:45.705Z,10.9835
2023-04-27T06:45:53.906Z,10.8777
2023-04-27T06:47:01.848Z,10.8664
2023-04-27T06:48:10.012Z,10.8821
2023-04-27T06:49:17.939Z,10.8872
2023-04-27T06:50:26.027Z,10.7421
2023-04-27T06:51:34.120Z,10.8733
2023-04-27T06:52:42.320Z,11.0465
2023-04-27T06:53:50.258Z,11.0631
2023-04-27T06:54:58.278Z,11.1077
2023-04-27T06:56:06.309Z,11.2357
2023-04-27T06:57:14.310Z,11.3229
2023-04-27T06:58:22.359Z,11.4230
2023-04-27T06:59:30.412Z,11.4207
2023-04-27T07:00:38.518Z,11.4831
2023-04-27T07:01:46.561Z,11.4878
2023-04-27T07:02:54.673Z,11.3227
2023-04-27T07:04:02.780Z,11.2754
2023-04-27T07:05:10.721Z,11.3202
2023-04-27T07:06:18.833Z,11.3522
2023-04-27T07:07:26.909Z,11.2819
2023-04-27T07:08:35.034Z,11.1417
2023-04-27T07:09:43.113Z,11.0862
2023-04-27T07:10:51.136Z,10.9240
2023-04-27T07:11:59.226Z,10.8723
2023-04-27T07:13:09.119Z,10.8733
2023-04-27T07:14:20.077Z,10.8781
2023-04-27T07:15:28.154Z,10.9650
2023-04-27T07:16:36.274Z,10.9711
2023-04-27T07:17:44.261Z,10.9593
2023-04-27T07:18:52.336Z,10.9301
2023-04-27T07:20:00.376Z,10.9568
2023-04-27T07:21:08.549Z,11.0047
2023-04-27T07:22:16.518Z,11.0308
2023-04-27T07:23:24.569Z,10.9986
2023-04-27T07:24:32.690Z,11.0551
2023-04-27T07:25:40.563Z,11.1949
2023-04-27T07:26:48.654Z,11.4266
2023-04-27T07:27:56.704Z,11.5464
2023-04-27T07:29:14.439Z,11.4499
2023-04-27T07:30:17.910Z,11.5847
2023-04-27T07:31:26.301Z,11.6200
2023-04-27T07:32:33.983Z,11.5599
2023-04-27T07:33:42.006Z,11.5931
2023-04-27T07:34:54.082Z,11.7015
2023-04-27T07:36:02.922Z,12.0050
2023-04-27T07:37:11.027Z,12.0950
2023-04-27T07:38:18.976Z,12.2695
2023-04-27T07:39:27.057Z,12.2950
2023-04-27T07:40:35.059Z,12.2178
2023-04-27T07:41:43.223Z,12.2451
2023-04-27T07:42:51.289Z,12.3135
2023-04-27T07:43:59.395Z,12.3517
2023-04-27T07:45:07.514Z,12.3637
2023-04-27T07:46:15.459Z,12.3727
2023-04-27T07:47:23.574Z,12.5394
2023-04-27T07:48:31.544Z,12.4020
2023-04-27T07:49:39.642Z,12.2767
2023-04-27T07:50:47.646Z,12.2088
2023-04-27T07:51:55.782Z,12.3288
2023-04-27T07:53:03.791Z,12.5449
2023-04-27T07:54:11.774Z,12.7290
2023-04-27T07:55:19.859Z,12.8899
2023-04-27T07:56:28.055Z,12.9870
2023-04-27T07:57:36.139Z,12.7793
2023-04-27T07:58:44.076Z,12.6962
2023-04-27T07:59:52.184Z,12.6466
2023-04-27T08:01:00.194Z,12.6925
2023-04-27T08:02:19.113Z,12.7013
2023-04-27T08:03:21.231Z,12.5700
2023-04-27T08:04:29.406Z,12.6433
2023-04-27T08:05:37.490Z,12.7635
2023-04-27T08:06:45.880Z,12.9243
2023-04-27T08:07:53.990Z,13.0082
2023-04-27T08:09:01.550Z,12.8356
2023-04-27T08:10:09.589Z,12.8968
2023-04-27T08:11:17.629Z,13.0080
2023-04-27T08:12:25.639Z,13.0969
2023-04-27T08:13:33.893Z,13.0204
2023-04-27T08:14:41.753Z,13.3078
2023-04-27T08:15:49.825Z,13.6939
2023-04-27T08:16:58.027Z,14.2993
2023-04-27T08:18:05.991Z,14.3605
2023-04-27T08:19:14.207Z,14.8770
2023-04-27T08:20:21.937Z,14.9878
2023-04-27T08:21:29.989Z,14.8690
2023-04-27T08:22:38.063Z,14.8246
2023-04-27T08:23:46.106Z,14.6529
2023-04-27T08:24:54.211Z,15.0773
2023-04-27T08:26:02.311Z,15.6073
2023-04-27T08:27:10.264Z,15.8118
2023-04-27T08:28:18.428Z,15.6943
2023-04-27T08:29:28.813Z,15.7105
2023-04-27T08:30:39.482Z,15.6989
2023-04-27T08:31:47.529Z,15.2400
2023-04-27T08:32:55.559Z,15.1610
2023-04-27T08:34:03.449Z,15.3104
2023-04-27T08:35:11.546Z,15.2434
2023-04-27T08:36:19.584Z,15.0212
2023-04-27T08:37:27.753Z,14.8606
2023-04-27T08:38:35.842Z,14.7055
2023-04-27T08:39:43.804Z,14.7134
2023-04-27T08:40:51.897Z,14.5932
2023-04-27T08:42:00.014Z,14.5547
2023-04-27T08:43:08.008Z,14.6605
2023-04-27T08:44:16.107Z,14.7044
2023-04-27T08:45:24.115Z,14.8289
2023-04-27T08:46:32.163Z,14.9920
2023-04-27T08:47:43.421Z,15.1482
2023-04-27T08:48:53.059Z,15.2629
2023-04-27T08:50:01.121Z,15.2253
2023-04-27T08:51:09.121Z,15.1679
2023-04-27T08:52:17.356Z,15.2989
2023-04-27T08:53:25.404Z,15.4086
2023-04-27T08:54:33.313Z,15.5566
2023-04-27T08:55:41.496Z,15.7544
2023-04-27T08:56:49.519Z,15.8957
2023-04-27T08:57:57.590Z,15.8686
2023-04-27T08:59:05.661Z,15.8107
2023-04-27T09:00:13.711Z,15.7449
2023-04-27T09:01:21.944Z,15.7750
2023-04-27T09:02:30.036Z,15.8076
2023-04-27T09:03:37.995Z,15.7597
2023-04-27T09:04:45.909Z,15.6436
2023-04-27T09:06:04.369Z,15.1530
2023-04-27T09:07:06.897Z,15.0338
2023-04-27T09:08:14.975Z,15.1856
2023-04-27T09:09:23.008Z,15.1686
2023-04-27T09:10:31.283Z,15.4046
2023-04-27T09:11:39.165Z,15.4008
2023-04-27T09:12:47.222Z,15.3054
2023-04-27T09:13:55.225Z,15.1171
2023-04-27T09:15:03.308Z,15.1851
2023-04-27T09:16:11.523Z,15.3527
2023-04-27T09:17:19.339Z,15.5368
2023-04-27T09:18:27.321Z,15.6022
2023-04-27T09:19:35.406Z,15.6041
2023-04-27T09:20:43.552Z,15.7069
2023-04-27T09:21:51.714Z,15.5011
2023-04-27T09:22:59.871Z,15.4034
2023-04-27T09:24:07.744Z,15.4420
2023-04-27T09:25:15.779Z,15.7748
2023-04-27T09:26:23.795Z,15.8747
2023-04-27T09:27:31.824Z,15.9692
2023-04-27T09:28:39.944Z,15.9888
2023-04-27T09:29:48.192Z,15.9852
2023-04-27T09:30:56.055Z,16.0100
2023-04-27T09:32:04.181Z,16.0514
2023-04-27T09:33:12.081Z,16.0222
2023-04-27T09:34:20.122Z,15.8952
2023-04-27T09:35:28.358Z,15.8986
2023-04-27T09:36:36.226Z,15.9419
2023-04-27T09:37:44.426Z,15.9549
2023-04-27T09:38:52.490Z,15.7437
2023-04-27T09:40:00.449Z,15.8385
2023-04-27T09:41:08.594Z,15.8795
2023-04-27T09:42:16.515Z,16.0226
2023-04-27T09:43:24.633Z,15.9869
2023-04-27T09:44:32.917Z,15.6796
2023-04-27T09:45:40.856Z,15.7807
2023-04-27T09:46:48.743Z,15.8929
2023-04-27T09:47:56.887Z,16.0025
2023-04-27T09:49:04.843Z,16.0941
2023-04-27T09:50:12.916Z,16.3506
2023-04-27T09:51:21.071Z,16.4626
2023-04-27T09:52:29.186Z,16.3789
2023-04-27T09:53:37.077Z,16.4693
2023-04-27T09:54:45.234Z,16.3783
2023-04-27T09:55:53.435Z,16.1660
2023-04-27T09:57:01.347Z,16.1412
2023-04-27T09:58:09.375Z,16.4471
2023-04-27T09:59:17.449Z,16.8002
2023-04-27T10:00:25.469Z,17.0024
2023-04-27T10:01:35.274Z,17.0956
2023-04-27T10:02:53.068Z,17.1848
2023-04-27T10:03:59.443Z,17.2036
2023-04-27T10:05:07.364Z,16.9099
2023-04-27T10:06:15.471Z,16.8122
2023-04-27T10:07:23.566Z,16.6083
2023-04-27T10:08:31.891Z,16.9478
2023-04-27T10:09:39.670Z,17.2005
2023-04-27T10:10:47.698Z,17.2435
2023-04-27T10:11:55.727Z,17.3890
2023-04-27T10:13:03.883Z,17.3119
2023-04-27T10:14:11.790Z,17.5692
2023-04-27T10:15:19.836Z,17.7335
2023-04-27T10:16:27.909Z,17.7079
2023-04-27T10:17:36.116Z,18.0157
2023-04-27T10:18:44.052Z,18.5592
2023-04-27T10:19:54.305Z,18.8056
2023-04-27T10:21:05.024Z,19.0118
2023-04-27T10:22:13.166Z,19.4194
2023-04-27T10:23:21.361Z,19.6536
2023-04-27T10:24:29.227Z,19.4531
2023-04-27T10:25:37.323Z,19.1418
2023-04-27T10:26:45.299Z,18.5843
2023-04-27T10:27:53.370Z,18.3774
2023-04-27T10:29:01.324Z,18.7049
2023-04-27T10:30:09.405Z,19.0623
2023-04-27T10:31:17.603Z,19.1857
2023-04-27T10:32:25.683Z,19.2717
2023-04-27T10:33:33.639Z,18.9521
2023-04-27T10:34:41.662Z,18.6515
2023-04-27T10:35:49.856Z,18.6997
2023-04-27T10:36:57.788Z,18.5433
2023-04-27T10:38:05.845Z,18.7064
2023-04-27T10:39:14.217Z,18.7222
2023-04-27T10:40:21.988Z,18.9345
2023-04-27T10:41:30.099Z,19.1897
2023-04-27T10:42:37.974Z,19.7022
2023-04-27T10:43:46.035Z,20.2678
2023-04-27T10:44:54.106Z,20.9948
2023-04-27T10:46:02.346Z,21.1081
2023-04-27T10:47:10.297Z,20.9466
2023-04-27T10:48:18.270Z,20.8520
2023-04-27T10:49:26.441Z,20.8381
2023-04-27T10:50:34.607Z,21.0755
2023-04-27T10:51:42.592Z,21.3260
2023-04-27T10:52:50.636Z,20.9964
2023-04-27T10:53:58.632Z,20.5254
2023-04-27T10:55:06.679Z,20.7579
2023-04-27T10:56:14.741Z,21.1020
2023-04-27T10:57:22.712Z,21.3401
2023-04-27T10:58:41.421Z,21.3383
2023-04-27T10:59:43.960Z,21.2936
2023-04-27T11:00:51.749Z,21.6086
2023-04-27T11:01:59.884Z,22.0298
2023-04-27T11:03:08.037Z,22.5434
2023-04-27T11:04:16.478Z,23.0159
2023-04-27T11:05:24.058Z,23.4151
2023-04-27T11:06:32.194Z,23.9423
2023-04-27T11:07:40.182Z,24.4021
2023-04-27T11:08:48.231Z,24.9478
2023-04-27T11:09:56.284Z,25.3045
2023-04-27T11:11:04.241Z,25.6066
2023-04-27T11:12:12.289Z,25.2688
2023-04-27T11:13:20.393Z,25.4287
2023-04-27T11:14:28.498Z,25.3205
2023-04-27T11:15:36.624Z,25.3367
2023-04-27T11:16:44.687Z,24.3665
2023-04-27T11:17:52.729Z,23.5768
2023-04-27T11:19:00.718Z,22.6737
2023-04-27T11:20:08.801Z,21.6595
2023-04-27T11:21:16.904Z,20.8421
2023-04-27T11:22:24.880Z,20.4305
2023-04-27T11:23:33.060Z,20.3353
2023-04-27T11:24:40.999Z,19.5823
2023-04-27T11:25:48.978Z,19.1121
2023-04-27T11:26:57.074Z,18.7095
2023-04-27T11:28:05.116Z,18.5124
2023-04-27T11:29:13.653Z,18.3801
2023-04-27T11:30:21.311Z,18.3524
2023-04-27T11:31:29.402Z,18.7466
2023-04-27T11:32:37.566Z,19.0308
2023-04-27T11:33:45.457Z,19.0308
2023-04-27T11:34:54.657Z,19.2027
2023-04-27T11:36:06.432Z,19.3871
2023-04-27T11:37:18.429Z,19.6147
2023-04-27T11:38:27.487Z,19.3525
2023-04-27T11:39:35.382Z,19.8163
2023-04-27T11:40:43.435Z,19.6408
2023-04-27T11:41:51.630Z,19.6671
2023-04-27T11:42:59.675Z,19.7268
2023-04-27T11:44:07.758Z,19.5147
2023-04-27T11:45:15.787Z,19.2982
2023-04-27T11:46:23.839Z,18.8090
2023-04-27T11:47:31.935Z,18.4777
2023-04-27T11:48:39.921Z,18.8340
2023-04-27T11:49:47.998Z,19.1951
2023-04-27T11:50:56.110Z,19.6854
2023-04-27T11:52:04.093Z,20.1379
2023-04-27T11:53:12.034Z,20.8569
2023-04-27T11:54:20.082Z,21.1478
2023-04-27T11:55:28.189Z,20.2308
2023-04-27T11:56:36.470Z,19.6149
2023-04-27T11:57:44.401Z,19.5788
2023-04-27T11:58:52.314Z,20.2180
2023-04-27T12:00:00.646Z,21.5081
2023-04-27T12:01:08.587Z,22.7084
2023-04-27T12:02:16.620Z,24.0727
2023-04-27T12:03:24.984Z,24.7830
2023-04-27T12:04:32.907Z,25.2324
2023-04-27T12:05:40.954Z,25.0098
2023-04-27T12:06:48.855Z,23.0792
2023-04-27T12:07:56.877Z,20.8077
2023-04-27T12:09:04.986Z,19.7047
2023-04-27T12:10:12.879Z,20.6303
2023-04-27T12:11:20.965Z,21.7400
2023-04-27T12:12:29.034Z,22.9750
2023-04-27T12:13:37.186Z,24.5793
2023-04-27T12:14:45.352Z,24.7849
2023-04-27T12:15:53.572Z,24.9001
2023-04-27T12:17:01.473Z,25.5019
2023-04-27T12:18:09.602Z,25.2902
2023-04-27T12:19:17.640Z,25.6505
2023-04-27T12:20:25.718Z,25.6835
2023-04-27T12:21:33.611Z,26.5042
2023-04-27T12:22:41.717Z,26.5179
2023-04-27T12:23:49.863Z,26.9667
2023-04-27T12:24:57.734Z,27.6105
2023-04-27T12:26:05.806Z,27.9580
2023-04-27T12:27:13.858Z,26.9147
2023-04-27T12:28:22.003Z,27.1041
2023-04-27T12:29:29.998Z,27.0411
2023-04-27T12:30:38.156Z,26.8739
2023-04-27T12:31:46.256Z,27.2342
2023-04-27T12:32:54.416Z,27.8916
2023-04-27T12:34:02.304Z,28.0591
2023-04-27T12:35:10.494Z,27.4154
2023-04-27T12:36:18.567Z,26.9009
2023-04-27T12:37:27.146Z,27.4102
2023-04-27T12:38:34.440Z,27.4312
2023-04-27T12:39:42.516Z,28.0413
2023-04-27T12:40:50.608Z,27.6366
2023-04-27T12:41:58.806Z,27.2931
2023-04-27T12:43:06.734Z,28.0597
2023-04-27T12:44:15.068Z,28.2121
2023-04-27T12:45:22.905Z,28.0099
2023-04-27T12:46:30.995Z,27.3604
2023-04-27T12:47:58.345Z,28.2754
2023-04-27T12:48:51.985Z,27.8677
2023-04-27T12:50:00.013Z,27.5519
2023-04-27T12:51:08.242Z,27.5229
2023-04-27T12:52:16.132Z,27.3385
2023-04-27T12:53:24.150Z,28.6246
2023-04-27T12:54:32.240Z,29.3761
2023-04-27T12:55:40.433Z,29.3101
2023-04-27T12:56:48.385Z,29.4427
2023-04-27T12:57:56.545Z,29.0520
2023-04-27T12:59:04.604Z,28.6059
2023-04-27T13:00:12.690Z,28.3112
2023-04-27T13:01:20.634Z,26.9969
2023-04-27T13:02:28.938Z,26.5361
2023-04-27T13:03:37.095Z,25.1290
2023-04-27T13:04:45.055Z,24.4662
2023-04-27T13:05:53.028Z,25.7930
2023-04-27T13:07:00.938Z,26.0657
2023-04-27T13:08:08.997Z,25.9042
2023-04-27T13:09:17.099Z,26.3722
2023-04-27T13:10:25.226Z,25.2429
2023-04-27T13:11:33.282Z,25.3297
2023-04-27T13:12:41.608Z,25.6148
2023-04-27T13:13:49.411Z,24.5604
2023-04-27T13:14:57.547Z,24.2451
2023-04-27T13:16:05.598Z,23.6102
2023-04-27T13:17:13.627Z,23.3958
2023-04-27T13:18:21.663Z,22.6886
2023-04-27T13:19:29.725Z,22.0979
2023-04-27T13:20:38.002Z,22.4335
2023-04-27T13:21:45.709Z,22.2098
2023-04-27T13:22:53.773Z,21.8709
2023-04-27T13:24:01.841Z,21.8985
2023-04-27T13:25:10.020Z,21.9569
2023-04-27T13:26:17.968Z,21.1163
2023-04-27T13:27:26.421Z,20.9925
2023-04-27T13:28:34.161Z,20.7446
2023-04-27T13:29:42.249Z,20.0812
2023-04-27T13:30:50.251Z,19.8308
2023-04-27T13:31:58.384Z,19.8136
2023-04-27T13:33:21.096Z,21.4949
2023-04-27T13:34:19.322Z,22.7326
2023-04-27T13:35:27.413Z,22.7765
2023-04-27T13:36:35.306Z,23.5129
2023-04-27T13:37:43.402Z,24.2184
2023-04-27T13:38:51.444Z,24.8917
2023-04-27T13:39:59.634Z,24.0077
2023-04-27T13:41:07.664Z,24.5808
2023-04-27T13:42:15.701Z,25.4277
2023-04-27T13:43:23.806Z,26.4500
2023-04-27T13:44:31.972Z,26.9656
2023-04-27T13:45:39.947Z,27.5473
2023-04-27T13:46:48.059Z,27.4777
2023-04-27T13:47:56.040Z,26.7905
2023-04-27T13:49:04.108Z,26.5515
2023-04-27T13:50:12.176Z,26.6236
2023-04-27T13:51:20.144Z,26.7951
2023-04-27T13:52:28.174Z,27.2202
2023-04-27T13:53:36.278Z,26.6511
2023-04-27T13:54:44.654Z,26.9353
2023-04-27T13:55:52.488Z,26.6242